sensor_id;sensor_type;location;lat;lon;timestamp;pressure;altitude;pressure_sealevel;temperature;humidity
62980;BME280;49075;53.988;27.678;2023-04-28T00:01:39;987.8;;;1.2;64.3
62980;BME280;49075;53.988;27.678;2023-04-28T00:06:17;987.8;;;1.2;63.6
62980;BME280;49075;53.988;27.678;2023-04-28T00:11:25;987.8;;;1.1;64.2
62980;BME280;49075;53.988;27.678;2023-04-28T00:16:33;987.8;;;1.1;64
62980;BME280;49075;53.988;27.678;2023-04-28T00:21:21;987.8;;;1;64.6
62980;BME280;49075;53.988;27.678;2023-04-28T00:26:25;987.9;;;1;64.2
62980;BME280;49075;53.988;27.678;2023-04-28T00:31:11;987.9;;;1;65
62980;BME280;49075;53.988;27.678;2023-04-28T00:36:51;987.9;;;1;64.5
62980;BME280;49075;53.988;27.678;2023-04-28T00:41:11;988;;;0.9;65.1
62980;BME280;49075;53.988;27.678;2023-04-28T00:46:12;988;;;0.9;64.7
62980;BME280;49075;53.988;27.678;2023-04-28T00:51:27;988.1;;;0.9;65.6
62980;BME280;49075;53.988;27.678;2023-04-28T00:56:11;988.1;;;0.9;65.1
62980;BME280;49075;53.988;27.678;2023-04-28T01:01:11;988.1;;;0.8;66.1
62980;BME280;49075;53.988;27.678;2023-04-28T01:06:21;988.1;;;0.8;65.6
62980;BME280;49075;53.988;27.678;2023-04-28T01:11:11;988.1;;;0.8;66.2
62980;BME280;49075;53.988;27.678;2023-04-28T01:16:17;988.1;;;0.8;65.8
62980;BME280;49075;53.988;27.678;2023-04-28T01:21:25;988.1;;;0.8;66.4
62980;BME280;49075;53.988;27.678;2023-04-28T01:26:11;988.1;;;0.8;66
62980;BME280;49075;53.988;27.678;2023-04-28T01:31:17;988.2;;;0.8;66.5
62980;BME280;49075;53.988;27.678;2023-04-28T01:36:11;988.2;;;0.8;66.2
62980;BME280;49075;53.988;27.678;2023-04-28T01:41:31;988.2;;;0.7;66.9
62980;BME280;49075;53.988;27.678;2023-04-28T01:46:21;988.2;;;0.7;66.6
62980;BME280;49075;53.988;27.678;2023-04-28T01:51:25;988.2;;;0.7;67.2
62980;BME280;49075;53.988;27.678;2023-04-28T01:56:23;988.1;;;0.7;66.8
62980;BME280;49075;53.988;27.678;2023-04-28T02:01:11;988.1;;;0.7;67.8
62980;BME280;49075;53.988;27.678;2023-04-28T02:06:21;988.2;;;0.6;67.3
62980;BME280;49075;53.988;27.678;2023-04-28T02:11:19;988.2;;;0.6;67.7
62980;BME280;49075;53.988;27.678;2023-04-28T02:16:35;988.2;;;0.6;67.4
62980;BME280;49075;53.988;27.678;2023-04-28T02:21:49;988.2;;;0.6;67.9
62980;BME280;49075;53.988;27.678;2023-04-28T02:26:11;988.3;;;0.6;67.2
62980;BME280;49075;53.988;27.678;2023-04-28T02:31:21;988.3;;;0.6;67.8
62980;BME280;49075;53.988;27.678;2023-04-28T02:36:11;988.3;;;0.6;67.2
62980;BME280;49075;53.988;27.678;2023-04-28T02:41:37;988.4;;;0.5;68
62980;BME280;49075;53.988;27.678;2023-04-28T02:46:11;988.4;;;0.5;67.6
62980;BME280;49075;53.988;27.678;2023-04-28T02:51:39;988.5;;;0.5;68
62980;BME280;49075;53.988;27.678;2023-04-28T02:56:11;988.5;;;0.5;67.5
62980;BME280;49075;53.988;27.678;2023-04-28T03:01:25;988.5;;;0.5;68
62980;BME280;49075;53.988;27.678;2023-04-28T03:06:37;988.5;;;0.5;67.6
62980;BME280;49075;53.988;27.678;2023-04-28T03:11:31;988.6;;;0.6;67.8
62980;BME280;49075;53.988;27.678;2023-04-28T03:16:25;988.6;;;0.6;67.8
62980;BME280;49075;53.988;27.678;2023-04-28T03:21:23;988.7;;;0.6;67.8
62980;BME280;49075;53.988;27.678;2023-04-28T03:26:33;988.8;;;0.7;67.3
62980;BME280;49075;53.988;27.678;2023-04-28T03:31:11;988.8;;;0.7;67.6
62980;BME280;49075;53.988;27.678;2023-04-28T03:36:17;988.8;;;0.9;67.2
62980;BME280;49075;53.988;27.678;2023-04-28T03:41:21;988.9;;;0.9;67.4
62980;BME280;49075;53.988;27.678;2023-04-28T03:46:11;989;;;1.1;66.8
62980;BME280;49075;53.988;27.678;2023-04-28T03:51:11;989;;;1.3;66.8
62980;BME280;49075;53.988;27.678;2023-04-28T03:56:43;989.1;;;1.4;66.2
62980;BME280;49075;53.988;27.678;2023-04-28T04:01:21;989.1;;;1.6;65.9
62980;BME280;49075;53.988;27.678;2023-04-28T04:06:23;989.2;;;1.9;65.4
62980;BME280;49075;53.988;27.678;2023-04-28T04:11:29;989.2;;;2.2;64.7
62980;BME280;49075;53.988;27.678;2023-04-28T04:16:34;989.2;;;2.4;64.3
62980;BME280;49075;53.988;27.678;2023-04-28T04:21:31;989.2;;;2.8;63.4
62980;BME280;49075;53.988;27.678;2023-04-28T04:26:33;989.2;;;3.2;62.7
62980;BME280;49075;53.988;27.678;2023-04-28T04:31:11;989.2;;;3.4;61.9
62980;BME280;49075;53.988;27.678;2023-04-28T04:36:17;989.3;;;3.6;61.5
62980;BME280;49075;53.988;27.678;2023-04-28T04:41:11;989.3;;;3.7;60.8
62980;BME280;49075;53.988;27.678;2023-04-28T04:46:12;989.3;;;3.8;60.6
62980;BME280;49075;53.988;27.678;2023-04-28T04:51:23;989.4;;;4;59.9
62980;BME280;49075;53.988;27.678;2023-04-28T04:56:25;989.4;;;3.8;59.7
62980;BME280;49075;53.988;27.678;2023-04-28T05:01:38;989.5;;;4.1;59.2
62980;BME280;49075;53.988;27.678;2023-04-28T05:06:17;989.5;;;4.3;58.6
62980;BME280;49075;53.988;27.678;2023-04-28T05:11:25;989.6;;;4.7;58.1
62980;BME280;49075;53.988;27.678;2023-04-28T05:16:11;989.6;;;4.8;56.7
62980;BME280;49075;53.988;27.678;2023-04-28T05:21:21;989.6;;;5.1;56.9
62980;BME280;49075;53.988;27.678;2023-04-28T05:26:11;989.6;;;5.4;54.9
62980;BME280;49075;53.988;27.678;2023-04-28T05:31:31;989.7;;;5.8;55.1
62980;BME280;49075;53.988;27.678;2023-04-28T05:36:21;989.7;;;6.2;53.2
62980;BME280;49075;53.988;27.678;2023-04-28T05:41:23;989.8;;;6.4;52.9
62980;BME280;49075;53.988;27.678;2023-04-28T05:46:11;989.8;;;6.3;50.9
62980;BME280;49075;53.988;27.678;2023-04-28T05:51:33;989.8;;;6.5;52.1
62980;BME280;49075;53.988;27.678;2023-04-28T05:56:23;989.8;;;6.9;50.7
62980;BME280;49075;53.988;27.678;2023-04-28T06:01:17;989.8;;;7.5;50.3
62980;BME280;49075;53.988;27.678;2023-04-28T06:06:11;989.8;;;8;47.6
62980;BME280;49075;53.988;27.678;2023-04-28T06:11:11;989.8;;;8.9;47.5
62980;BME280;49075;53.988;27.678;2023-04-28T06:16:11;989.8;;;9.7;44.6
62980;BME280;49075;53.988;27.678;2023-04-28T06:21:11;989.8;;;10.5;44.4
62980;BME280;49075;53.988;27.678;2023-04-28T06:26:55;989.8;;;11.2;41.6
62980;BME280;49075;53.988;27.678;2023-04-28T06:31:21;989.8;;;12.2;40.8
62980;BME280;49075;53.988;27.678;2023-04-28T06:36:39;989.8;;;13;37.1
62980;BME280;49075;53.988;27.678;2023-04-28T06:41:29;989.8;;;13.8;36.7
62980;BME280;49075;53.988;27.678;2023-04-28T06:46:19;989.8;;;14.9;33.6
62980;BME280;49075;53.988;27.678;2023-04-28T06:51:25;989.7;;;15.6;33.1
62980;BME280;49075;53.988;27.678;2023-04-28T06:56:17;989.7;;;16.3;30.7
62980;BME280;49075;53.988;27.678;2023-04-28T07:01:11;989.7;;;16.5;30.7
62980;BME280;49075;53.988;27.678;2023-04-28T07:06:33;989.7;;;16.9;29.1
62980;BME280;49075;53.988;27.678;2023-04-28T07:11:17;989.7;;;17.2;28.4
62980;BME280;49075;53.988;27.678;2023-04-28T07:16:11;989.8;;;17.4;28.3
62980;BME280;49075;53.988;27.678;2023-04-28T07:21:25;989.8;;;17.2;26.7
62980;BME280;49075;53.988;27.678;2023-04-28T07:26:11;989.7;;;17.7;27.8
62980;BME280;49075;53.988;27.678;2023-04-28T07:31:11;989.8;;;18.1;26
62980;BME280;49075;53.988;27.678;2023-04-28T07:36:12;989.8;;;18.4;27.1
62980;BME280;49075;53.988;27.678;2023-04-28T07:41:11;989.8;;;18.2;25.6
62980;BME280;49075;53.988;27.678;2023-04-28T07:46:25;989.8;;;18.4;26.3
62980;BME280;49075;53.988;27.678;2023-04-28T07:51:51;989.8;;;18;25.5
62980;BME280;49075;53.988;27.678;2023-04-28T07:56:17;989.8;;;17.9;26.2
62980;BME280;49075;53.988;27.678;2023-04-28T08:01:33;989.8;;;17.5;25.2
62980;BME280;49075;53.988;27.678;2023-04-28T08:06:11;989.9;;;17.1;26
62980;BME280;49075;53.988;27.678;2023-04-28T08:11:19;989.8;;;17.6;25.4
62980;BME280;49075;53.988;27.678;2023-04-28T08:16:25;989.8;;;18.1;25.3
62980;BME280;49075;53.988;27.678;2023-04-28T08:21:33;989.8;;;18.7;24.3
62980;BME280;49075;53.988;27.678;2023-04-28T08:26:23;989.8;;;19.5;24.1
62980;BME280;49075;53.988;27.678;2023-04-28T08:31:31;989.7;;;19.9;23.2
62980;BME280;49075;53.988;27.678;2023-04-28T08:36:27;989.7;;;19.8;23.6
62980;BME280;49075;53.988;27.678;2023-04-28T08:41:12;989.8;;;19.2;23.5
62980;BME280;49075;53.988;27.678;2023-04-28T08:46:13;989.8;;;19;24.1
62980;BME280;49075;53.988;27.678;2023-04-28T08:51:23;989.8;;;17.6;24.3
62980;BME280;49075;53.988;27.678;2023-04-28T08:56:20;989.8;;;18.5;24
62980;BME280;49075;53.988;27.678;2023-04-28T09:01:25;989.7;;;19.4;22.4
62980;BME280;49075;53.988;27.678;2023-04-28T09:06:32;989.7;;;19.7;22.3
62980;BME280;49075;53.988;27.678;2023-04-28T09:11:13;989.7;;;20.6;21.6
62980;BME280;49075;53.988;27.678;2023-04-28T09:16:21;989.6;;;20.2;22.1
62980;BME280;49075;53.988;27.678;2023-04-28T09:21:13;989.6;;;19.1;22.2
62980;BME280;49075;53.988;27.678;2023-04-28T09:26:27;989.6;;;19.8;21.4
62980;BME280;49075;53.988;27.678;2023-04-28T09:31:44;989.5;;;20.9;20.9
62980;BME280;49075;53.988;27.678;2023-04-28T09:36:15;989.5;;;21.4;20.4
62980;BME280;49075;53.988;27.678;2023-04-28T09:41:35;989.5;;;22;19.4
62980;BME280;49075;53.988;27.678;2023-04-28T09:46:13;989.4;;;21.5;19.1
62980;BME280;49075;53.988;27.678;2023-04-28T09:51:19;989.4;;;21.6;19.4
62980;BME280;49075;53.988;27.678;2023-04-28T09:56:28;989.4;;;21.7;19.4
62980;BME280;49075;53.988;27.678;2023-04-28T10:01:13;989.5;;;21.9;19.2
62980;BME280;49075;53.988;27.678;2023-04-28T10:06:13;989.5;;;22.1;18.9
62980;BME280;49075;53.988;27.678;2023-04-28T10:11:45;989.5;;;22.7;17.7
62980;BME280;49075;53.988;27.678;2023-04-28T10:16:26;989.5;;;22.9;18.3
62980;BME280;49075;53.988;27.678;2023-04-28T10:21:15;989.5;;;23.7;18
62980;BME280;49075;53.988;27.678;2023-04-28T10:26:14;989.4;;;23;18.3
62980;BME280;49075;53.988;27.678;2023-04-28T10:31:14;989.5;;;20.9;19.4
62980;BME280;49075;53.988;27.678;2023-04-28T10:36:45;989.4;;;20.8;19.5
62980;BME280;49075;53.988;27.678;2023-04-28T10:41:31;989.4;;;21.6;18.9
62980;BME280;49075;53.988;27.678;2023-04-28T10:46:13;989.4;;;21.5;19.3
62980;BME280;49075;53.988;27.678;2023-04-28T10:51:49;989.4;;;21.7;19.1
62980;BME280;49075;53.988;27.678;2023-04-28T10:56:26;989.4;;;21.5;19.1
62980;BME280;49075;53.988;27.678;2023-04-28T11:01:29;989.4;;;21.4;18.7
62980;BME280;49075;53.988;27.678;2023-04-28T11:06:38;989.4;;;21;18.7
62980;BME280;49075;53.988;27.678;2023-04-28T11:11:26;989.3;;;20.4;18.9
62980;BME280;49075;53.988;27.678;2023-04-28T11:16:14;989.3;;;20.3;19.4
62980;BME280;49075;53.988;27.678;2023-04-28T11:21:31;989.3;;;19.3;19.8
62980;BME280;49075;53.988;27.678;2023-04-28T11:26:13;989.3;;;17.4;21
62980;BME280;49075;53.988;27.678;2023-04-28T11:31:14;989.4;;;15.4;22.7
62980;BME280;49075;53.988;27.678;2023-04-28T11:36:29;989.4;;;14.5;24.2
62980;BME280;49075;53.988;27.678;2023-04-28T11:41:17;989.4;;;14.3;24.9
62980;BME280;49075;53.988;27.678;2023-04-28T11:46:15;989.3;;;13.7;25.6
62980;BME280;49075;53.988;27.678;2023-04-28T11:51:30;989.3;;;12.7;26.8
62980;BME280;49075;53.988;27.678;2023-04-28T11:56:13;989.4;;;12.6;26.7
62980;BME280;49075;53.988;27.678;2023-04-28T12:01:27;989.3;;;12.7;26.7
62980;BME280;49075;53.988;27.678;2023-04-28T12:06:25;989.3;;;12.9;26.6
62980;BME280;49075;53.988;27.678;2023-04-28T12:11:19;989.3;;;13.1;26.2
62980;BME280;49075;53.988;27.678;2023-04-28T12:16:35;989.3;;;12.6;26.3
62980;BME280;49075;53.988;27.678;2023-04-28T12:21:33;989.3;;;12.1;27.2
62980;BME280;49075;53.988;27.678;2023-04-28T12:26:13;989.3;;;11.7;27.5
62980;BME280;49075;53.988;27.678;2023-04-28T12:31:25;989.3;;;11.8;27.8
62980;BME280;49075;53.988;27.678;2023-04-28T12:36:33;989.3;;;11.7;28.2
62980;BME280;49075;53.988;27.678;2023-04-28T12:42:00;989.3;;;11.7;28.9
62980;BME280;49075;53.988;27.678;2023-04-28T12:46:13;989.2;;;11.5;28.7
62980;BME280;49075;53.988;27.678;2023-04-28T12:51:13;989.2;;;11.3;29.4
62980;BME280;49075;53.988;27.678;2023-04-28T12:56:13;989.2;;;11.4;29.3
62980;BME280;49075;53.988;27.678;2023-04-28T13:01:21;989.2;;;11.7;29.1
62980;BME280;49075;53.988;27.678;2023-04-28T13:06:26;989.2;;;11.6;28.6
62980;BME280;49075;53.988;27.678;2023-04-28T13:11:13;989.2;;;11.4;27.7
62980;BME280;49075;53.988;27.678;2023-04-28T13:16:36;989.2;;;11.4;27.9
62980;BME280;49075;53.988;27.678;2023-04-28T13:21:43;989.2;;;11.7;27.4
62980;BME280;49075;53.988;27.678;2023-04-28T13:26:13;989.2;;;11.5;27.4
62980;BME280;49075;53.988;27.678;2023-04-28T13:31:13;989.2;;;11.2;28
62980;BME280;49075;53.988;27.678;2023-04-28T13:36:13;989.2;;;10.7;29
62980;BME280;49075;53.988;27.678;2023-04-28T13:41:23;989.2;;;10.7;29.2
62980;BME280;49075;53.988;27.678;2023-04-28T13:46:33;989.1;;;10.8;29.4
62980;BME280;49075;53.988;27.678;2023-04-28T13:51:13;989.1;;;10.8;29.6
62980;BME280;49075;53.988;27.678;2023-04-28T13:56:25;989.1;;;10.9;29.7
62980;BME280;49075;53.988;27.678;2023-04-28T14:01:28;989.1;;;11.1;29.3
62980;BME280;49075;53.988;27.678;2023-04-28T14:06:19;989.1;;;10.9;28.4
62980;BME280;49075;53.988;27.678;2023-04-28T14:11:13;989.1;;;10.9;28.7
62980;BME280;49075;53.988;27.678;2023-04-28T14:16:14;989.1;;;10.7;29.9
62980;BME280;49075;53.988;27.678;2023-04-28T14:21:13;989.1;;;10.7;30.1
62980;BME280;49075;53.988;27.678;2023-04-28T14:26:27;989;;;10.7;30.4
62980;BME280;49075;53.988;27.678;2023-04-28T14:31:14;989;;;10.6;30.6
62980;BME280;49075;53.988;27.678;2023-04-28T14:36:13;989.1;;;10.4;31
62980;BME280;49075;53.988;27.678;2023-04-28T14:41:33;989.1;;;10.4;30.6
62980;BME280;49075;53.988;27.678;2023-04-28T14:46:13;989;;;10.4;31
62980;BME280;49075;53.988;27.678;2023-04-28T14:51:37;989;;;10.6;31
62980;BME280;49075;53.988;27.678;2023-04-28T14:56:28;989;;;10.6;31.2
62980;BME280;49075;53.988;27.678;2023-04-28T15:01:20;988.9;;;10.9;30.4
62980;BME280;49075;53.988;27.678;2023-04-28T15:06:14;988.9;;;11.1;30
62980;BME280;49075;53.988;27.678;2023-04-28T15:11:40;988.9;;;11;30.4
62980;BME280;49075;53.988;27.678;2023-04-28T15:16:20;988.8;;;11;30.7
62980;BME280;49075;53.988;27.678;2023-04-28T15:21:14;988.8;;;10.9;30.7
62980;BME280;49075;53.988;27.678;2023-04-28T15:26:24;988.8;;;10.7;30.8
62980;BME280;49075;53.988;27.678;2023-04-28T15:31:28;988.8;;;10.6;30.7
62980;BME280;49075;53.988;27.678;2023-04-28T15:36:14;988.8;;;10.5;30.8
62980;BME280;49075;53.988;27.678;2023-04-28T15:41:46;988.8;;;10.3;30.6
62980;BME280;49075;53.988;27.678;2023-04-28T15:46:14;988.8;;;10.3;30.6
62980;BME280;49075;53.988;27.678;2023-04-28T15:51:14;988.8;;;10.3;30.9
62980;BME280;49075;53.988;27.678;2023-04-28T15:56:20;988.8;;;10.3;31.3
62980;BME280;49075;53.988;27.678;2023-04-28T16:01:26;988.8;;;10.1;31.5
62980;BME280;49075;53.988;27.678;2023-04-28T16:06:28;988.8;;;10.1;31.7
62980;BME280;49075;53.988;27.678;2023-04-28T16:11:14;988.9;;;10.1;31.9
62980;BME280;49075;53.988;27.678;2023-04-28T16:16:14;988.9;;;10.1;31.5
62980;BME280;49075;53.988;27.678;2023-04-28T16:21:40;988.9;;;9.9;31.4
62980;BME280;49075;53.988;27.678;2023-04-28T16:26:14;988.9;;;9.8;31.4
62980;BME280;49075;53.988;27.678;2023-04-28T16:31:26;988.9;;;9.6;31.9
62980;BME280;49075;53.988;27.678;2023-04-28T16:36:29;988.9;;;9.6;32.3
62980;BME280;49075;53.988;27.678;2023-04-28T16:41:14;988.9;;;9.3;32.7
62980;BME280;49075;53.988;27.678;2023-04-28T16:46:26;988.9;;;9.1;33
62980;BME280;49075;53.988;27.678;2023-04-28T16:51:14;988.9;;;9;33.2
62980;BME280;49075;53.988;27.678;2023-04-28T16:56:14;988.9;;;8.8;33.7
62980;BME280;49075;53.988;27.678;2023-04-28T17:01:40;988.9;;;8.7;33.9
62980;BME280;49075;53.988;27.678;2023-04-28T17:06:54;988.9;;;8.6;34.4
62980;BME280;49075;53.988;27.678;2023-04-28T17:11:26;988.9;;;8.4;34.6
62980;BME280;49075;53.988;27.678;2023-04-28T17:16:40;989;;;8.2;35.4
62980;BME280;49075;53.988;27.678;2023-04-28T17:21:14;988.9;;;8.1;35.7
62980;BME280;49075;53.988;27.678;2023-04-28T17:26:20;988.9;;;7.9;36.7
62980;BME280;49075;53.988;27.678;2023-04-28T17:31:14;988.9;;;7.7;37.1
62980;BME280;49075;53.988;27.678;2023-04-28T17:36:14;989;;;7.6;37.6
62980;BME280;49075;53.988;27.678;2023-04-28T17:41:30;989;;;7.4;38.2
62980;BME280;49075;53.988;27.678;2023-04-28T17:46:54;989;;;7.2;39
62980;BME280;49075;53.988;27.678;2023-04-28T17:51:14;989;;;6.9;39.9
62980;BME280;49075;53.988;27.678;2023-04-28T17:56:38;989.1;;;6.7;40
62980;BME280;49075;53.988;27.678;2023-04-28T18:01:14;989.1;;;6.5;41.2
62980;BME280;49075;53.988;27.678;2023-04-28T18:06:20;989.2;;;6.3;40.8
62980;BME280;49075;53.988;27.678;2023-04-28T18:11:14;989.2;;;6.2;41.4
62980;BME280;49075;53.988;27.678;2023-04-28T18:16:26;989.2;;;6;42.3
62980;BME280;49075;53.988;27.678;2023-04-28T18:21:30;989.3;;;5.9;42.7
62980;BME280;49075;53.988;27.678;2023-04-28T18:26:24;989.3;;;5.7;43.9
62980;BME280;49075;53.988;27.678;2023-04-28T18:31:24;989.3;;;5.6;44.1
62980;BME280;49075;53.988;27.678;2023-04-28T18:36:14;989.3;;;5.4;45.4
62980;BME280;49075;53.988;27.678;2023-04-28T18:41:34;989.3;;;5.3;45.2
62980;BME280;49075;53.988;27.678;2023-04-28T18:46:26;989.3;;;5.2;46
62980;BME280;49075;53.988;27.678;2023-04-28T18:51:20;989.3;;;5;46.9
62980;BME280;49075;53.988;27.678;2023-04-28T18:56:14;989.3;;;4.8;47.2
62980;BME280;49075;53.988;27.678;2023-04-28T19:01:26;989.4;;;4.6;47.6
62980;BME280;49075;53.988;27.678;2023-04-28T19:06:24;989.3;;;4.6;47.5
62980;BME280;49075;53.988;27.678;2023-04-28T19:11:14;989.3;;;4.5;48.5
62980;BME280;49075;53.988;27.678;2023-04-28T19:16:14;989.3;;;4.5;47.7
62980;BME280;49075;53.988;27.678;2023-04-28T19:21:14;989.3;;;4.5;50
62980;BME280;49075;53.988;27.678;2023-04-28T19:26:38;989.3;;;4.5;48.5
62980;BME280;49075;53.988;27.678;2023-04-28T19:31:14;989.3;;;4.3;49.8
62980;BME280;49075;53.988;27.678;2023-04-28T19:36:14;989.3;;;4.2;49.1
62980;BME280;49075;53.988;27.678;2023-04-28T19:41:28;989.3;;;4.2;50.3
62980;BME280;49075;53.988;27.678;2023-04-28T19:46:14;989.2;;;4.1;49.7
62980;BME280;49075;53.988;27.678;2023-04-28T19:51:28;989.3;;;4;50.3
62980;BME280;49075;53.988;27.678;2023-04-28T19:56:14;989.3;;;3.9;50.2
62980;BME280;49075;53.988;27.678;2023-04-28T20:01:20;989.3;;;3.8;51.5
62980;BME280;49075;53.988;27.678;2023-04-28T20:06:38;989.4;;;3.6;51.5
62980;BME280;49075;53.988;27.678;2023-04-28T20:11:28;989.4;;;3.6;52.1
62980;BME280;49075;53.988;27.678;2023-04-28T20:16:59;989.4;;;3.6;51.8
62980;BME280;49075;53.988;27.678;2023-04-28T20:21:14;989.4;;;3.6;52.6
62980;BME280;49075;53.988;27.678;2023-04-28T20:26:40;989.4;;;3.4;52.1
62980;BME280;49075;53.988;27.678;2023-04-28T20:31:20;989.4;;;3.3;53
62980;BME280;49075;53.988;27.678;2023-04-28T20:36:14;989.4;;;3.3;52.6
62980;BME280;49075;53.988;27.678;2023-04-28T20:41:14;989.4;;;3.3;53.2
62980;BME280;49075;53.988;27.678;2023-04-28T20:46:26;989.5;;;3.2;53.2
62980;BME280;49075;53.988;27.678;2023-04-28T20:51:14;989.4;;;3.1;53.3
62980;BME280;49075;53.988;27.678;2023-04-28T20:56:20;989.4;;;2.9;53.6
62980;BME280;49075;53.988;27.678;2023-04-28T21:01:24;989.5;;;2.8;53.9
62980;BME280;49075;53.988;27.678;2023-04-28T21:06:48;989.5;;;2.7;54.5
62980;BME280;49075;53.988;27.678;2023-04-28T21:11:20;989.5;;;2.6;54.4
62980;BME280;49075;53.988;27.678;2023-04-28T21:16:20;989.5;;;2.4;54.8
62980;BME280;49075;53.988;27.678;2023-04-28T21:21:28;989.5;;;2.4;54.9
62980;BME280;49075;53.988;27.678;2023-04-28T21:26:22;989.5;;;2.2;55.5
62980;BME280;49075;53.988;27.678;2023-04-28T21:31:24;989.5;;;2.2;54.9
62980;BME280;49075;53.988;27.678;2023-04-28T21:36:40;989.5;;;2.1;56
62980;BME280;49075;53.988;27.678;2023-04-28T21:41:34;989.5;;;2.1;55.2
62980;BME280;49075;53.988;27.678;2023-04-28T21:46:36;989.5;;;2.1;56.2
62980;BME280;49075;53.988;27.678;2023-04-28T21:51:14;989.4;;;2;55.6
